sensor_id;sensor_type;location;lat;lon;timestamp;pressure;altitude;pressure_sealevel;temperature;humidity
63731;BME280;49747;51.334;6.830;2023-02-17T00:03:36;101520.03;;;12.31;89.30
63731;BME280;49747;51.334;6.830;2023-02-17T00:06:07;101516.50;;;12.31;89.25
63731;BME280;49747;51.334;6.830;2023-02-17T00:08:35;101519.16;;;12.31;89.28
63731;BME280;49747;51.334;6.830;2023-02-17T00:11:02;101509.34;;;12.31;89.20
63731;BME280;49747;51.334;6.830;2023-02-17T00:13:29;101505.63;;;12.21;90.02
63731;BME280;49747;51.334;6.830;2023-02-17T00:15:55;101511.69;;;12.23;89.62
63731;BME280;49747;51.334;6.830;2023-02-17T00:18:22;101512.00;;;12.19;90.02
63731;BME280;49747;51.334;6.830;2023-02-17T00:20:49;101519.78;;;12.22;90.23
63731;BME280;49747;51.334;6.830;2023-02-17T00:23:16;101511.03;;;12.20;89.81
63731;BME280;49747;51.334;6.830;2023-02-17T00:25:43;101508.38;;;12.20;90.10
63731;BME280;49747;51.334;6.830;2023-02-17T00:28:10;101507.84;;;12.27;89.38
63731;BME280;49747;51.334;6.830;2023-02-17T00:30:37;101515.63;;;12.18;90.47
63731;BME280;49747;51.334;6.830;2023-02-17T00:33:04;101503.69;;;12.23;89.78
63731;BME280;49747;51.334;6.830;2023-02-17T00:35:31;101508.72;;;12.28;89.68
63731;BME280;49747;51.334;6.830;2023-02-17T00:37:58;101518.00;;;12.35;88.93
63731;BME280;49747;51.334;6.830;2023-02-17T00:40:24;101500.13;;;12.37;89.45
63731;BME280;49747;51.334;6.830;2023-02-17T00:42:51;101508.41;;;12.32;89.93
63731;BME280;49747;51.334;6.830;2023-02-17T00:45:20;101514.03;;;12.28;89.83
63731;BME280;49747;51.334;6.830;2023-02-17T00:47:47;101498.63;;;12.33;90.38
63731;BME280;49747;51.334;6.830;2023-02-17T00:50:15;101505.34;;;12.39;89.83
63731;BME280;49747;51.334;6.830;2023-02-17T00:52:42;101499.34;;;12.35;90.28
63731;BME280;49747;51.334;6.830;2023-02-17T00:55:09;101500.72;;;12.28;91.46
63731;BME280;49747;51.334;6.830;2023-02-17T00:57:35;101497.97;;;12.29;91.48
63731;BME280;49747;51.334;6.830;2023-02-17T01:00:03;101498.06;;;12.28;92.26
63731;BME280;49747;51.334;6.830;2023-02-17T01:02:32;101473.09;;;12.16;92.08
63731;BME280;49747;51.334;6.830;2023-02-17T01:04:58;101494.34;;;12.30;92.31
63731;BME280;49747;51.334;6.830;2023-02-17T01:07:25;101489.97;;;12.29;92.63
63731;BME280;49747;51.334;6.830;2023-02-17T01:09:52;101480.38;;;12.27;92.91
63731;BME280;49747;51.334;6.830;2023-02-17T01:12:19;101479.41;;;12.28;93.09
63731;BME280;49747;51.334;6.830;2023-02-17T01:14:46;101480.81;;;12.33;92.75
63731;BME280;49747;51.334;6.830;2023-02-17T01:17:12;101483.25;;;12.37;92.86
63731;BME280;49747;51.334;6.830;2023-02-17T01:19:39;101474.00;;;12.29;93.82
63731;BME280;49747;51.334;6.830;2023-02-17T01:22:05;101477.38;;;12.31;93.99
63731;BME280;49747;51.334;6.830;2023-02-17T01:24:32;101472.25;;;12.28;94.87
63731;BME280;49747;51.334;6.830;2023-02-17T01:27:00;101475.47;;;12.21;95.92
63731;BME280;49747;51.334;6.830;2023-02-17T01:29:27;101475.25;;;12.24;95.65
63731;BME280;49747;51.334;6.830;2023-02-17T01:31:54;101460.66;;;12.29;95.50
63731;BME280;49747;51.334;6.830;2023-02-17T01:34:20;101459.38;;;12.22;95.73
63731;BME280;49747;51.334;6.830;2023-02-17T01:36:47;101465.53;;;12.10;97.52
63731;BME280;49747;51.334;6.830;2023-02-17T01:39:14;101444.75;;;12.15;96.55
63731;BME280;49747;51.334;6.830;2023-02-17T01:41:44;101457.03;;;12.18;96.43
63731;BME280;49747;51.334;6.830;2023-02-17T01:44:17;101441.13;;;12.16;96.19
63731;BME280;49747;51.334;6.830;2023-02-17T01:46:46;101446.78;;;12.24;96.06
63731;BME280;49747;51.334;6.830;2023-02-17T01:49:37;101449.69;;;12.21;95.91
63731;BME280;49747;51.334;6.830;2023-02-17T01:52:22;101441.56;;;12.10;96.97
63731;BME280;49747;51.334;6.830;2023-02-17T01:54:57;101438.38;;;12.18;95.99
63731;BME280;49747;51.334;6.830;2023-02-17T01:57:29;101428.31;;;12.08;96.68
63731;BME280;49747;51.334;6.830;2023-02-17T01:59:58;101434.28;;;12.12;96.11
63731;BME280;49747;51.334;6.830;2023-02-17T02:02:26;101426.41;;;12.11;95.66
63731;BME280;49747;51.334;6.830;2023-02-17T02:04:55;101423.31;;;12.04;96.45
63731;BME280;49747;51.334;6.830;2023-02-17T02:07:42;101425.97;;;12.04;95.99
63731;BME280;49747;51.334;6.830;2023-02-17T02:10:11;101420.56;;;12.05;95.88
63731;BME280;49747;51.334;6.830;2023-02-17T02:12:40;101425.38;;;12.13;95.66
63731;BME280;49747;51.334;6.830;2023-02-17T02:17:51;101419.16;;;12.13;95.35
63731;BME280;49747;51.334;6.830;2023-02-17T02:25:59;101418.56;;;12.22;94.68
63731;BME280;49747;51.334;6.830;2023-02-17T02:29:00;101423.88;;;12.22;94.77
63731;BME280;49747;51.334;6.830;2023-02-17T02:34:21;101425.78;;;12.20;94.93
63731;BME280;49747;51.334;6.830;2023-02-17T02:39:23;101415.69;;;12.25;94.15
63731;BME280;49747;51.334;6.830;2023-02-17T02:41:55;101416.94;;;12.19;94.40
63731;BME280;49747;51.334;6.830;2023-02-17T02:44:24;101399.91;;;12.22;94.76
63731;BME280;49747;51.334;6.830;2023-02-17T02:49:59;101396.94;;;12.26;94.44
63731;BME280;49747;51.334;6.830;2023-02-17T02:52:36;101398.44;;;12.30;94.31
63731;BME280;49747;51.334;6.830;2023-02-17T02:58:07;101391.94;;;12.22;94.76
63731;BME280;49747;51.334;6.830;2023-02-17T03:01:04;101386.91;;;12.17;95.05
63731;BME280;49747;51.334;6.830;2023-02-17T03:06:40;101378.03;;;12.17;94.99
63731;BME280;49747;51.334;6.830;2023-02-17T03:09:23;101378.59;;;12.22;94.90
63731;BME280;49747;51.334;6.830;2023-02-17T03:11:57;101379.34;;;12.24;94.73
63731;BME280;49747;51.334;6.830;2023-02-17T03:14:25;101372.09;;;12.13;94.68
63731;BME280;49747;51.334;6.830;2023-02-17T03:16:53;101360.03;;;12.20;94.10
63731;BME280;49747;51.334;6.830;2023-02-17T03:19:23;101372.19;;;12.24;94.13
63731;BME280;49747;51.334;6.830;2023-02-17T03:22:05;101366.97;;;12.23;94.49
63731;BME280;49747;51.334;6.830;2023-02-17T03:24:34;101376.25;;;12.30;94.22
63731;BME280;49747;51.334;6.830;2023-02-17T03:27:01;101376.78;;;12.35;93.75
63731;BME280;49747;51.334;6.830;2023-02-17T03:29:27;101371.47;;;12.35;93.83
63731;BME280;49747;51.334;6.830;2023-02-17T03:31:54;101368.91;;;12.33;93.42
63731;BME280;49747;51.334;6.830;2023-02-17T03:34:21;101365.28;;;12.35;93.74
63731;BME280;49747;51.334;6.830;2023-02-17T03:36:48;101364.66;;;12.18;94.17
63731;BME280;49747;51.334;6.830;2023-02-17T03:39:14;101362.75;;;12.33;93.36
63731;BME280;49747;51.334;6.830;2023-02-17T03:41:42;101370.63;;;12.35;93.00
63731;BME280;49747;51.334;6.830;2023-02-17T03:44:08;101368.69;;;12.37;93.46
63731;BME280;49747;51.334;6.830;2023-02-17T03:46:37;101359.09;;;12.34;93.30
63731;BME280;49747;51.334;6.830;2023-02-17T03:49:04;101359.63;;;12.39;92.75
63731;BME280;49747;51.334;6.830;2023-02-17T03:51:30;101379.03;;;12.41;93.18
63731;BME280;49747;51.334;6.830;2023-02-17T03:53:57;101382.25;;;12.33;93.57
63731;BME280;49747;51.334;6.830;2023-02-17T03:56:23;101388.81;;;12.28;93.47
63731;BME280;49747;51.334;6.830;2023-02-17T03:58:50;101377.00;;;12.32;93.37
63731;BME280;49747;51.334;6.830;2023-02-17T04:01:17;101381.59;;;12.30;93.67
63731;BME280;49747;51.334;6.830;2023-02-17T04:03:44;101377.84;;;12.32;93.12
63731;BME280;49747;51.334;6.830;2023-02-17T04:06:11;101372.84;;;12.41;92.70
63731;BME280;49747;51.334;6.830;2023-02-17T04:08:38;101378.41;;;12.25;93.62
63731;BME280;49747;51.334;6.830;2023-02-17T04:11:06;101383.81;;;12.36;92.89
63731;BME280;49747;51.334;6.830;2023-02-17T04:13:33;101387.88;;;12.29;93.27
63731;BME280;49747;51.334;6.830;2023-02-17T04:16:00;101391.06;;;12.34;93.09
63731;BME280;49747;51.334;6.830;2023-02-17T04:18:30;101387.44;;;12.35;93.16
63731;BME280;49747;51.334;6.830;2023-02-17T04:20:57;101385.63;;;12.36;92.79
63731;BME280;49747;51.334;6.830;2023-02-17T04:23:24;101394.16;;;12.41;92.62
63731;BME280;49747;51.334;6.830;2023-02-17T04:25:51;101394.28;;;12.39;92.72
63731;BME280;49747;51.334;6.830;2023-02-17T04:28:18;101390.97;;;12.36;92.89
63731;BME280;49747;51.334;6.830;2023-02-17T04:30:45;101387.13;;;12.40;92.83
63731;BME280;49747;51.334;6.830;2023-02-17T04:33:13;101390.75;;;12.39;92.56
63731;BME280;49747;51.334;6.830;2023-02-17T04:35:41;101385.84;;;12.32;93.28
63731;BME280;49747;51.334;6.830;2023-02-17T04:38:09;101385.84;;;12.32;93.15
63731;BME280;49747;51.334;6.830;2023-02-17T04:40:36;101381.91;;;12.25;93.92
63731;BME280;49747;51.334;6.830;2023-02-17T04:43:03;101380.63;;;12.31;93.44
63731;BME280;49747;51.334;6.830;2023-02-17T04:45:30;101385.75;;;12.34;92.88
63731;BME280;49747;51.334;6.830;2023-02-17T04:47:57;101382.97;;;12.36;92.82
63731;BME280;49747;51.334;6.830;2023-02-17T04:50:24;101383.72;;;12.38;92.40
63731;BME280;49747;51.334;6.830;2023-02-17T04:52:51;101379.34;;;12.37;93.08
63731;BME280;49747;51.334;6.830;2023-02-17T04:55:18;101368.16;;;12.31;92.67
63731;BME280;49747;51.334;6.830;2023-02-17T04:57:45;101365.94;;;12.38;92.91
63731;BME280;49747;51.334;6.830;2023-02-17T05:00:11;101375.50;;;12.41;92.64
63731;BME280;49747;51.334;6.830;2023-02-17T05:02:38;101383.50;;;12.41;92.87
63731;BME280;49747;51.334;6.830;2023-02-17T05:05:05;101368.91;;;12.33;93.07
63731;BME280;49747;51.334;6.830;2023-02-17T05:07:32;101381.72;;;12.41;92.87
63731;BME280;49747;51.334;6.830;2023-02-17T05:09:59;101379.88;;;12.42;92.83
63731;BME280;49747;51.334;6.830;2023-02-17T05:12:25;101379.03;;;12.41;92.77
63731;BME280;49747;51.334;6.830;2023-02-17T05:14:52;101379.44;;;12.48;92.64
63731;BME280;49747;51.334;6.830;2023-02-17T05:17:19;101374.88;;;12.37;93.32
63731;BME280;49747;51.334;6.830;2023-02-17T05:19:45;101359.75;;;12.38;92.90
63731;BME280;49747;51.334;6.830;2023-02-17T05:22:12;101361.78;;;12.34;93.16
63731;BME280;49747;51.334;6.830;2023-02-17T05:24:39;101345.25;;;12.29;92.72
63731;BME280;49747;51.334;6.830;2023-02-17T05:27:05;101359.44;;;12.29;93.52
63731;BME280;49747;51.334;6.830;2023-02-17T05:29:33;101369.44;;;12.26;93.42
63731;BME280;49747;51.334;6.830;2023-02-17T05:31:59;101368.69;;;12.37;93.02
63731;BME280;49747;51.334;6.830;2023-02-17T05:34:26;101367.44;;;12.29;92.45
63731;BME280;49747;51.334;6.830;2023-02-17T05:36:52;101363.34;;;12.37;92.24
63731;BME280;49747;51.334;6.830;2023-02-17T05:39:19;101359.75;;;12.25;93.09
63731;BME280;49747;51.334;6.830;2023-02-17T05:41:46;101356.75;;;12.29;92.90
63731;BME280;49747;51.334;6.830;2023-02-17T05:44:12;101347.81;;;12.18;93.15
63731;BME280;49747;51.334;6.830;2023-02-17T05:46:39;101354.50;;;12.36;92.69
63731;BME280;49747;51.334;6.830;2023-02-17T05:49:06;101353.34;;;12.40;92.35
63731;BME280;49747;51.334;6.830;2023-02-17T05:51:33;101351.75;;;12.38;92.59
63731;BME280;49747;51.334;6.830;2023-02-17T05:53:59;101351.13;;;12.34;92.94
63731;BME280;49747;51.334;6.830;2023-02-17T05:56:26;101358.66;;;12.40;92.80
63731;BME280;49747;51.334;6.830;2023-02-17T05:58:52;101365.41;;;12.33;92.92
63731;BME280;49747;51.334;6.830;2023-02-17T06:01:19;101361.97;;;12.31;93.03
63731;BME280;49747;51.334;6.830;2023-02-17T06:03:46;101363.66;;;12.32;93.34
63731;BME280;49747;51.334;6.830;2023-02-17T06:06:12;101366.78;;;12.26;93.46
63731;BME280;49747;51.334;6.830;2023-02-17T06:08:39;101356.75;;;12.17;94.00
63731;BME280;49747;51.334;6.830;2023-02-17T06:11:06;101354.19;;;12.15;94.39
63731;BME280;49747;51.334;6.830;2023-02-17T06:13:32;101347.69;;;12.32;93.78
63731;BME280;49747;51.334;6.830;2023-02-17T06:15:59;101330.00;;;12.18;93.74
63731;BME280;49747;51.334;6.830;2023-02-17T06:18:26;101344.19;;;12.31;93.75
63731;BME280;49747;51.334;6.830;2023-02-17T06:20:56;101341.00;;;12.26;94.23
63731;BME280;49747;51.334;6.830;2023-02-17T06:23:24;101342.16;;;12.35;93.65
63731;BME280;49747;51.334;6.830;2023-02-17T06:25:52;101352.69;;;12.37;93.46
63731;BME280;49747;51.334;6.830;2023-02-17T06:28:18;101353.03;;;12.32;94.45
63731;BME280;49747;51.334;6.830;2023-02-17T06:30:45;101344.09;;;12.33;94.51
63731;BME280;49747;51.334;6.830;2023-02-17T06:33:12;101343.34;;;12.18;94.70
63731;BME280;49747;51.334;6.830;2023-02-17T06:35:39;101359.97;;;12.35;94.38
63731;BME280;49747;51.334;6.830;2023-02-17T06:38:06;101365.81;;;12.40;94.30
63731;BME280;49747;51.334;6.830;2023-02-17T06:40:32;101355.81;;;12.30;95.12
63731;BME280;49747;51.334;6.830;2023-02-17T06:42:59;101348.00;;;12.27;95.35
63731;BME280;49747;51.334;6.830;2023-02-17T06:45:26;101357.19;;;12.36;94.87
63731;BME280;49747;51.334;6.830;2023-02-17T06:47:52;101364.63;;;12.31;95.85
63731;BME280;49747;51.334;6.830;2023-02-17T06:50:19;101362.94;;;12.30;95.95
63731;BME280;49747;51.334;6.830;2023-02-17T06:52:47;101352.63;;;12.25;95.86
63731;BME280;49747;51.334;6.830;2023-02-17T06:55:13;101352.16;;;12.31;95.67
63731;BME280;49747;51.334;6.830;2023-02-17T06:57:41;101350.03;;;12.37;96.52
63731;BME280;49747;51.334;6.830;2023-02-17T07:00:08;101348.00;;;12.40;96.68
63731;BME280;49747;51.334;6.830;2023-02-17T07:02:38;101372.31;;;12.36;97.46
63731;BME280;49747;51.334;6.830;2023-02-17T07:05:06;101354.75;;;12.33;98.58
63731;BME280;49747;51.334;6.830;2023-02-17T07:07:33;101342.38;;;12.32;98.17
63731;BME280;49747;51.334;6.830;2023-02-17T07:09:59;101346.19;;;12.41;97.90
63731;BME280;49747;51.334;6.830;2023-02-17T07:12:27;101348.00;;;12.40;97.79
63731;BME280;49747;51.334;6.830;2023-02-17T07:14:54;101351.84;;;12.36;98.47
63731;BME280;49747;51.334;6.830;2023-02-17T07:17:21;101346.13;;;12.29;98.68
63731;BME280;49747;51.334;6.830;2023-02-17T07:19:47;101344.09;;;12.33;98.38
63731;BME280;49747;51.334;6.830;2023-02-17T07:22:14;101364.53;;;12.20;99.09
63731;BME280;49747;51.334;6.830;2023-02-17T07:24:41;101357.28;;;12.22;98.83
63731;BME280;49747;51.334;6.830;2023-02-17T07:27:07;101366.78;;;12.26;99.02
63731;BME280;49747;51.334;6.830;2023-02-17T07:29:36;101365.69;;;12.28;98.71
63731;BME280;49747;51.334;6.830;2023-02-17T07:32:02;101356.31;;;12.36;97.93
63731;BME280;49747;51.334;6.830;2023-02-17T07:34:29;101366.25;;;12.33;98.42
63731;BME280;49747;51.334;6.830;2023-02-17T07:36:56;101367.44;;;12.29;98.21
63731;BME280;49747;51.334;6.830;2023-02-17T07:39:23;101359.19;;;12.32;98.27
63731;BME280;49747;51.334;6.830;2023-02-17T07:41:49;101364.75;;;12.29;98.48
63731;BME280;49747;51.334;6.830;2023-02-17T07:44:17;101367.09;;;12.34;98.18
63731;BME280;49747;51.334;6.830;2023-02-17T07:46:43;101350.91;;;12.37;97.96
63731;BME280;49747;51.334;6.830;2023-02-17T07:49:10;101354.09;;;12.29;97.94
63731;BME280;49747;51.334;6.830;2023-02-17T07:51:37;101358.47;;;12.30;98.27
63731;BME280;49747;51.334;6.830;2023-02-17T07:54:04;101364.75;;;12.29;98.20
63731;BME280;49747;51.334;6.830;2023-02-17T07:56:31;101367.63;;;12.39;98.04
63731;BME280;49747;51.334;6.830;2023-02-17T07:58:59;101374.78;;;12.39;98.01
63731;BME280;49747;51.334;6.830;2023-02-17T08:01:25;101365.16;;;12.36;98.04
63731;BME280;49747;51.334;6.830;2023-02-17T08:03:52;101364.63;;;12.44;97.69
63731;BME280;49747;51.334;6.830;2023-02-17T08:06:22;101352.47;;;12.40;97.76
63731;BME280;49747;51.334;6.830;2023-02-17T08:08:50;101350.03;;;12.37;98.17
63731;BME280;49747;51.334;6.830;2023-02-17T08:11:35;101361.31;;;12.40;97.98
63731;BME280;49747;51.334;6.830;2023-02-17T08:14:31;101365.19;;;12.49;97.56
63731;BME280;49747;51.334;6.830;2023-02-17T08:16:58;101355.28;;;12.38;97.83
63731;BME280;49747;51.334;6.830;2023-02-17T08:19:26;101371.78;;;12.43;97.73
63731;BME280;49747;51.334;6.830;2023-02-17T08:22:08;101375.28;;;12.44;97.54
63731;BME280;49747;51.334;6.830;2023-02-17T08:24:34;101371.44;;;12.48;97.40
63731;BME280;49747;51.334;6.830;2023-02-17T08:27:01;101361.88;;;12.45;97.70
63731;BME280;49747;51.334;6.830;2023-02-17T08:29:27;101356.00;;;12.40;98.01
63731;BME280;49747;51.334;6.830;2023-02-17T08:31:54;101364.63;;;12.44;98.21
63731;BME280;49747;51.334;6.830;2023-02-17T08:34:21;101351.88;;;12.49;97.54
63731;BME280;49747;51.334;6.830;2023-02-17T08:36:48;101351.53;;;12.53;97.27
63731;BME280;49747;51.334;6.830;2023-02-17T08:39:17;101351.00;;;12.61;97.52
63731;BME280;49747;51.334;6.830;2023-02-17T08:41:44;101356.09;;;12.64;96.92
63731;BME280;49747;51.334;6.830;2023-02-17T08:44:17;101348.00;;;12.66;96.42
63731;BME280;49747;51.334;6.830;2023-02-17T08:46:45;101346.81;;;12.70;96.51
63731;BME280;49747;51.334;6.830;2023-02-17T08:49:20;101343.50;;;12.66;96.67
63731;BME280;49747;51.334;6.830;2023-02-17T08:51:48;101343.94;;;12.60;96.39
63731;BME280;49747;51.334;6.830;2023-02-17T08:54:15;101346.59;;;12.73;96.08
63731;BME280;49747;51.334;6.830;2023-02-17T08:56:42;101339.16;;;12.65;95.71
63731;BME280;49747;51.334;6.830;2023-02-17T08:59:11;101328.41;;;12.54;96.72
63731;BME280;49747;51.334;6.830;2023-02-17T09:01:39;101353.50;;;12.75;95.87
63731;BME280;49747;51.334;6.830;2023-02-17T09:04:07;101348.94;;;12.77;96.21
63731;BME280;49747;51.334;6.830;2023-02-17T09:06:37;101349.44;;;12.82;95.74
63731;BME280;49747;51.334;6.830;2023-02-17T09:09:08;101356.28;;;12.87;95.30
63731;BME280;49747;51.334;6.830;2023-02-17T09:11:36;101360.13;;;12.82;95.29
63731;BME280;49747;51.334;6.830;2023-02-17T09:14:04;101360.28;;;12.92;95.56
63731;BME280;49747;51.334;6.830;2023-02-17T09:16:30;101349.47;;;12.70;96.34
63731;BME280;49747;51.334;6.830;2023-02-17T09:18:57;101361.81;;;12.83;96.06
63731;BME280;49747;51.334;6.830;2023-02-17T09:21:24;101364.91;;;12.90;95.91
63731;BME280;49747;51.334;6.830;2023-02-17T09:23:50;101370.53;;;12.98;95.26
63731;BME280;49747;51.334;6.830;2023-02-17T09:26:20;101366.25;;;12.96;95.55
63731;BME280;49747;51.334;6.830;2023-02-17T09:28:47;101364.22;;;12.99;95.25
63731;BME280;49747;51.334;6.830;2023-02-17T09:31:17;101361.47;;;13.01;95.38
63731;BME280;49747;51.334;6.830;2023-02-17T09:33:44;101365.38;;;13.08;95.10
63731;BME280;49747;51.334;6.830;2023-02-17T09:36:16;101358.09;;;13.23;94.19
63731;BME280;49747;51.334;6.830;2023-02-17T09:38:43;101358.63;;;13.28;93.76
63731;BME280;49747;51.334;6.830;2023-02-17T09:43:43;101358.63;;;13.28;94.17
63731;BME280;49747;51.334;6.830;2023-02-17T09:46:31;101366.00;;;13.24;93.77
63731;BME280;49747;51.334;6.830;2023-02-17T09:49:03;101371.66;;;13.33;94.61
63731;BME280;49747;51.334;6.830;2023-02-17T09:51:40;101380.66;;;13.43;93.42
63731;BME280;49747;51.334;6.830;2023-02-17T09:54:14;101367.94;;;13.46;93.52
63731;BME280;49747;51.334;6.830;2023-02-17T09:56:44;101381.91;;;13.50;92.87
63731;BME280;49747;51.334;6.830;2023-02-17T09:59:18;101382.63;;;13.52;92.61
63731;BME280;49747;51.334;6.830;2023-02-17T10:01:47;101382.53;;;13.53;92.36
63731;BME280;49747;51.334;6.830;2023-02-17T10:04:20;101390.34;;;13.57;92.40
63731;BME280;49747;51.334;6.830;2023-02-17T10:06:59;101373.91;;;13.50;92.56
63731;BME280;49747;51.334;6.830;2023-02-17T10:09:31;101379.75;;;13.55;92.98
63731;BME280;49747;51.334;6.830;2023-02-17T10:12:09;101383.53;;;13.52;93.10
63731;BME280;49747;51.334;6.830;2023-02-17T10:14:51;101386.56;;;13.59;92.59
63731;BME280;49747;51.334;6.830;2023-02-17T10:17:25;101386.34;;;13.62;92.82
63731;BME280;49747;51.334;6.830;2023-02-17T10:19:56;101371.78;;;13.66;92.85
63731;BME280;49747;51.334;6.830;2023-02-17T10:22:26;101389.69;;;13.77;91.45
63731;BME280;49747;51.334;6.830;2023-02-17T10:24:53;101379.97;;;13.76;92.04
63731;BME280;49747;51.334;6.830;2023-02-17T10:27:36;101379.63;;;13.80;91.86
63731;BME280;49747;51.334;6.830;2023-02-17T10:30:27;101396.72;;;13.78;91.56
63731;BME280;49747;51.334;6.830;2023-02-17T10:33:12;101398.06;;;13.72;91.99
63731;BME280;49747;51.334;6.830;2023-02-17T10:35:54;101398.78;;;13.74;92.24
63731;BME280;49747;51.334;6.830;2023-02-17T10:40:59;101407.22;;;13.68;91.97
63731;BME280;49747;51.334;6.830;2023-02-17T10:43:30;101392.72;;;13.72;92.03
63731;BME280;49747;51.334;6.830;2023-02-17T10:46:04;101390.00;;;13.61;92.63
63731;BME280;49747;51.334;6.830;2023-02-17T10:48:48;101378.59;;;13.70;92.60
63731;BME280;49747;51.334;6.830;2023-02-17T10:51:22;101369.34;;;13.63;92.12
63731;BME280;49747;51.334;6.830;2023-02-17T10:53:54;101385.06;;;13.79;91.53
63731;BME280;49747;51.334;6.830;2023-02-17T10:56:27;101382.19;;;13.82;91.51
63731;BME280;49747;51.334;6.830;2023-02-17T10:59:46;101388.38;;;13.83;91.66
63731;BME280;49747;51.334;6.830;2023-02-17T11:02:41;101390.25;;;13.93;91.35
63731;BME280;49747;51.334;6.830;2023-02-17T11:05:29;101392.72;;;13.84;91.13
63731;BME280;49747;51.334;6.830;2023-02-17T11:07:59;101385.13;;;13.90;91.13
63731;BME280;49747;51.334;6.830;2023-02-17T11:10:32;101396.81;;;14.00;90.94
63731;BME280;49747;51.334;6.830;2023-02-17T11:13:00;101382.38;;;14.03;90.61
63731;BME280;49747;51.334;6.830;2023-02-17T11:15:33;101385.25;;;14.00;90.28
63731;BME280;49747;51.334;6.830;2023-02-17T11:18:08;101358.31;;;14.03;90.06
63731;BME280;49747;51.334;6.830;2023-02-17T11:20:36;101350.78;;;14.08;89.77
63731;BME280;49747;51.334;6.830;2023-02-17T11:25:42;101353.13;;;14.13;89.02
63731;BME280;49747;51.334;6.830;2023-02-17T11:28:23;101353.38;;;14.10;88.89
63731;BME280;49747;51.334;6.830;2023-02-17T11:30:56;101351.66;;;14.09;88.54
63731;BME280;49747;51.334;6.830;2023-02-17T11:33:38;101353.03;;;14.25;87.73
63731;BME280;49747;51.334;6.830;2023-02-17T11:36:06;101354.00;;;14.24;87.74
63731;BME280;49747;51.334;6.830;2023-02-17T11:41:05;101339.06;;;14.33;87.03
63731;BME280;49747;51.334;6.830;2023-02-17T11:43:34;101343.56;;;14.33;86.86
63731;BME280;49747;51.334;6.830;2023-02-17T11:49:01;101345.38;;;14.43;86.44
63731;BME280;49747;51.334;6.830;2023-02-17T11:51:53;101345.28;;;14.56;89.52
63731;BME280;49747;51.334;6.830;2023-02-17T11:54:32;101354.53;;;14.74;87.56
63731;BME280;49747;51.334;6.830;2023-02-17T12:05:52;101337.53;;;14.53;84.63
63731;BME280;49747;51.334;6.830;2023-02-17T12:08:47;101333.59;;;14.46;84.86
63731;BME280;49747;51.334;6.830;2023-02-17T12:11:42;101313.78;;;14.26;85.79
63731;BME280;49747;51.334;6.830;2023-02-17T12:14:39;101309.41;;;14.47;85.32
63731;BME280;49747;51.334;6.830;2023-02-17T12:17:17;101311.41;;;14.57;85.05
63731;BME280;49747;51.334;6.830;2023-02-17T12:20:03;101307.75;;;14.58;85.19
63731;BME280;49747;51.334;6.830;2023-02-17T12:25:24;101313.19;;;14.67;84.94
63731;BME280;49747;51.334;6.830;2023-02-17T12:36:04;101306.91;;;14.68;85.08
63731;BME280;49747;51.334;6.830;2023-02-17T12:38:41;101315.41;;;14.73;84.95
63731;BME280;49747;51.334;6.830;2023-02-17T12:44:27;101295.81;;;14.84;84.88
63731;BME280;49747;51.334;6.830;2023-02-17T12:47:03;101287.06;;;14.82;84.91
63731;BME280;49747;51.334;6.830;2023-02-17T12:49:47;101293.72;;;14.88;84.85
63731;BME280;49747;51.334;6.830;2023-02-17T12:52:25;101290.34;;;14.86;84.55
63731;BME280;49747;51.334;6.830;2023-02-17T12:55:36;101296.06;;;14.81;85.25
63731;BME280;49747;51.334;6.830;2023-02-17T12:58:06;101303.72;;;14.86;85.20
63731;BME280;49747;51.334;6.830;2023-02-17T13:00:42;101307.97;;;14.88;85.38
63731;BME280;49747;51.334;6.830;2023-02-17T13:03:09;101314.78;;;14.81;85.11
63731;BME280;49747;51.334;6.830;2023-02-17T13:05:39;101320.47;;;14.88;85.39
63731;BME280;49747;51.334;6.830;2023-02-17T13:08:15;101296.75;;;14.94;84.83
63731;BME280;49747;51.334;6.830;2023-02-17T13:10:44;101299.91;;;14.99;84.84
63731;BME280;49747;51.334;6.830;2023-02-17T13:13:23;101302.94;;;14.95;84.91
63731;BME280;49747;51.334;6.830;2023-02-17T13:18:33;101317.06;;;14.97;85.17
63731;BME280;49747;51.334;6.830;2023-02-17T13:23:44;101322.41;;;14.97;85.04
63731;BME280;49747;51.334;6.830;2023-02-17T13:28:50;101325.81;;;14.88;84.86
63731;BME280;49747;51.334;6.830;2023-02-17T13:31:24;101322.06;;;14.79;85.09
63731;BME280;49747;51.334;6.830;2023-02-17T13:33:54;101326.94;;;14.85;85.12
63731;BME280;49747;51.334;6.830;2023-02-17T13:39:43;101307.38;;;14.85;85.08
63731;BME280;49747;51.334;6.830;2023-02-17T13:41:49;101314.66;;;14.83;84.93
63731;BME280;49747;51.334;6.830;2023-02-17T13:44:32;101314.53;;;14.84;84.42
63731;BME280;49747;51.334;6.830;2023-02-17T13:47:04;101327.66;;;14.87;84.41
63731;BME280;49747;51.334;6.830;2023-02-17T13:49:32;101329.84;;;14.82;84.48
63731;BME280;49747;51.334;6.830;2023-02-17T13:52:08;101326.19;;;14.83;84.00
63731;BME280;49747;51.334;6.830;2023-02-17T13:54:35;101322.28;;;14.87;83.51
63731;BME280;49747;51.334;6.830;2023-02-17T13:57:02;101319.91;;;14.84;83.37
63731;BME280;49747;51.334;6.830;2023-02-17T13:59:30;101339.47;;;14.85;83.20
63731;BME280;49747;51.334;6.830;2023-02-17T14:01:56;101343.09;;;14.84;82.91
63731;BME280;49747;51.334;6.830;2023-02-17T14:04:29;101355.84;;;14.80;82.73
63731;BME280;49747;51.334;6.830;2023-02-17T14:06:57;101347.84;;;14.80;82.67
63731;BME280;49747;51.334;6.830;2023-02-17T14:09:27;101367.06;;;14.85;82.49
63731;BME280;49747;51.334;6.830;2023-02-17T14:11:56;101373.25;;;14.86;82.89
63731;BME280;49747;51.334;6.830;2023-02-17T14:14:28;101385.28;;;14.80;83.06
63731;BME280;49747;51.334;6.830;2023-02-17T14:17:01;101372.78;;;14.69;82.97
63731;BME280;49747;51.334;6.830;2023-02-17T14:19:29;101379.59;;;14.73;82.63